sensor_id;sensor_type;location;lat;lon;timestamp;pressure;altitude;pressure_sealevel;temperature;humidity
54628;BME280;40525;55.926;21.066;2023-12-20T00:02:17;100097.49;;;5.44;100.00
54628;BME280;40525;55.926;21.066;2023-12-20T00:04:47;100098.98;;;5.41;100.00
54628;BME280;40525;55.926;21.066;2023-12-20T00:07:14;100100.23;;;5.40;100.00
54628;BME280;40525;55.926;21.066;2023-12-20T00:09:41;100096.55;;;5.40;100.00
54628;BME280;40525;55.926;21.066;2023-12-20T00:12:09;100093.59;;;5.40;100.00
54628;BME280;40525;55.926;21.066;2023-12-20T00:14:37;100096.58;;;5.40;100.00
54628;BME280;40525;55.926;21.066;2023-12-20T00:17:04;100095.52;;;5.40;100.00
54628;BME280;40525;55.926;21.066;2023-12-20T00:19:31;100090.08;;;5.41;100.00
54628;BME280;40525;55.926;21.066;2023-12-20T00:21:58;100093.06;;;5.41;100.00
54628;BME280;40525;55.926;21.066;2023-12-20T00:24:26;100103.02;;;5.40;100.00
54628;BME280;40525;55.926;21.066;2023-12-20T00:26:53;100102.77;;;5.42;100.00
54628;BME280;40525;55.926;21.066;2023-12-20T00:29:20;100100.16;;;5.42;100.00
54628;BME280;40525;55.926;21.066;2023-12-20T00:31:47;100097.38;;;5.42;100.00
54628;BME280;40525;55.926;21.066;2023-12-20T00:34:14;100090.80;;;5.40;100.00
54628;BME280;40525;55.926;21.066;2023-12-20T00:36:41;100088.35;;;5.40;100.00
54628;BME280;40525;55.926;21.066;2023-12-20T00:39:08;100096.30;;;5.43;100.00
54628;BME280;40525;55.926;21.066;2023-12-20T00:41:35;100103.42;;;5.43;100.00
54628;BME280;40525;55.926;21.066;2023-12-20T00:44:02;100096.11;;;5.43;100.00
54628;BME280;40525;55.926;21.066;2023-12-20T00:46:29;100092.13;;;5.42;100.00
54628;BME280;40525;55.926;21.066;2023-12-20T00:48:56;100092.53;;;5.41;100.00
54628;BME280;40525;55.926;21.066;2023-12-20T00:51:23;100091.61;;;5.37;100.00
54628;BME280;40525;55.926;21.066;2023-12-20T00:53:51;100088.48;;;5.37;100.00
54628;BME280;40525;55.926;21.066;2023-12-20T00:56:21;100087.73;;;5.38;100.00
54628;BME280;40525;55.926;21.066;2023-12-20T00:58:48;100087.91;;;5.38;100.00
54628;BME280;40525;55.926;21.066;2023-12-20T01:01:15;100085.67;;;5.38;100.00
54628;BME280;40525;55.926;21.066;2023-12-20T01:03:42;100088.89;;;5.36;100.00
54628;BME280;40525;55.926;21.066;2023-12-20T01:06:10;100088.97;;;5.33;100.00
54628;BME280;40525;55.926;21.066;2023-12-20T01:08:37;100088.23;;;5.29;99.95
54628;BME280;40525;55.926;21.066;2023-12-20T01:11:04;100087.63;;;5.26;99.97
54628;BME280;40525;55.926;21.066;2023-12-20T01:13:32;100088.02;;;5.25;99.98
54628;BME280;40525;55.926;21.066;2023-12-20T01:15:59;100080.42;;;5.23;100.00
54628;BME280;40525;55.926;21.066;2023-12-20T01:18:26;100081.12;;;5.23;99.99
54628;BME280;40525;55.926;21.066;2023-12-20T01:20:53;100078.27;;;5.25;100.00
54628;BME280;40525;55.926;21.066;2023-12-20T01:23:20;100080.35;;;5.25;99.92
54628;BME280;40525;55.926;21.066;2023-12-20T01:25:48;100077.20;;;5.26;100.00
54628;BME280;40525;55.926;21.066;2023-12-20T01:28:14;100079.31;;;5.25;100.00
54628;BME280;40525;55.926;21.066;2023-12-20T01:30:41;100081.71;;;5.26;100.00
54628;BME280;40525;55.926;21.066;2023-12-20T01:33:08;100080.58;;;5.29;100.00
54628;BME280;40525;55.926;21.066;2023-12-20T01:35:35;100077.91;;;5.30;100.00
54628;BME280;40525;55.926;21.066;2023-12-20T01:38:02;100081.73;;;5.31;100.00
54628;BME280;40525;55.926;21.066;2023-12-20T01:40:29;100085.31;;;5.28;99.36
54628;BME280;40525;55.926;21.066;2023-12-20T01:43:00;100085.10;;;5.24;99.12
54628;BME280;40525;55.926;21.066;2023-12-20T01:45:27;100082.16;;;5.23;99.21
54628;BME280;40525;55.926;21.066;2023-12-20T01:47:55;100084.61;;;5.22;98.88
54628;BME280;40525;55.926;21.066;2023-12-20T01:50:22;100075.79;;;5.21;98.40
54628;BME280;40525;55.926;21.066;2023-12-20T01:52:50;100079.15;;;5.20;98.48
54628;BME280;40525;55.926;21.066;2023-12-20T01:55:19;100082.22;;;5.17;98.13
54628;BME280;40525;55.926;21.066;2023-12-20T01:57:46;100090.45;;;5.15;98.32
54628;BME280;40525;55.926;21.066;2023-12-20T02:00:14;100093.39;;;5.16;98.44
54628;BME280;40525;55.926;21.066;2023-12-20T02:02:41;100090.56;;;5.17;98.66
54628;BME280;40525;55.926;21.066;2023-12-20T02:05:09;100087.38;;;5.19;98.73
54628;BME280;40525;55.926;21.066;2023-12-20T02:07:37;100087.71;;;5.19;98.36
54628;BME280;40525;55.926;21.066;2023-12-20T02:10:04;100081.77;;;5.19;98.81
54628;BME280;40525;55.926;21.066;2023-12-20T02:12:31;100086.11;;;5.20;98.62
54628;BME280;40525;55.926;21.066;2023-12-20T02:14:58;100091.58;;;5.18;98.48
54628;BME280;40525;55.926;21.066;2023-12-20T02:17:25;100092.70;;;5.15;97.86
54628;BME280;40525;55.926;21.066;2023-12-20T02:19:52;100090.46;;;5.15;97.74
54628;BME280;40525;55.926;21.066;2023-12-20T02:22:20;100093.91;;;5.16;98.33
54628;BME280;40525;55.926;21.066;2023-12-20T02:24:47;100091.61;;;5.17;98.36
54628;BME280;40525;55.926;21.066;2023-12-20T02:27:14;100085.77;;;5.14;98.40
54628;BME280;40525;55.926;21.066;2023-12-20T02:29:42;100081.63;;;5.13;98.33
54628;BME280;40525;55.926;21.066;2023-12-20T02:32:09;100077.55;;;5.10;98.03
54628;BME280;40525;55.926;21.066;2023-12-20T02:34:35;100078.88;;;5.07;97.69
54628;BME280;40525;55.926;21.066;2023-12-20T02:37:03;100078.77;;;5.05;97.56
54628;BME280;40525;55.926;21.066;2023-12-20T02:39:30;100080.75;;;5.03;97.39
54628;BME280;40525;55.926;21.066;2023-12-20T02:41:57;100075.05;;;5.01;97.54
54628;BME280;40525;55.926;21.066;2023-12-20T02:44:24;100072.45;;;5.01;97.40
54628;BME280;40525;55.926;21.066;2023-12-20T02:46:51;100073.44;;;4.97;97.15
54628;BME280;40525;55.926;21.066;2023-12-20T02:49:18;100075.59;;;4.95;97.19
54628;BME280;40525;55.926;21.066;2023-12-20T02:51:45;100075.63;;;4.94;97.35
54628;BME280;40525;55.926;21.066;2023-12-20T02:54:13;100071.41;;;4.95;97.47
54628;BME280;40525;55.926;21.066;2023-12-20T02:56:40;100070.48;;;4.97;97.94
54628;BME280;40525;55.926;21.066;2023-12-20T02:59:06;100072.15;;;4.99;98.23
54628;BME280;40525;55.926;21.066;2023-12-20T03:01:35;100074.07;;;4.99;97.89
54628;BME280;40525;55.926;21.066;2023-12-20T03:04:02;100070.89;;;4.95;97.72
54628;BME280;40525;55.926;21.066;2023-12-20T03:06:29;100070.92;;;4.94;97.88
54628;BME280;40525;55.926;21.066;2023-12-20T03:08:55;100070.48;;;4.97;98.15
54628;BME280;40525;55.926;21.066;2023-12-20T03:11:26;100073.07;;;4.98;98.00
54628;BME280;40525;55.926;21.066;2023-12-20T03:13:53;100071.90;;;4.96;98.02
54628;BME280;40525;55.926;21.066;2023-12-20T03:16:19;100068.12;;;4.95;98.30
54628;BME280;40525;55.926;21.066;2023-12-20T03:18:47;100066.62;;;4.93;98.06
54628;BME280;40525;55.926;21.066;2023-12-20T03:21:14;100063.90;;;4.91;97.88
54628;BME280;40525;55.926;21.066;2023-12-20T03:23:41;100062.00;;;4.91;97.04
54628;BME280;40525;55.926;21.066;2023-12-20T03:26:08;100063.81;;;4.87;95.63
54628;BME280;40525;55.926;21.066;2023-12-20T03:28:35;100058.51;;;4.85;95.26
54628;BME280;40525;55.926;21.066;2023-12-20T03:31:03;100048.73;;;4.80;94.58
54628;BME280;40525;55.926;21.066;2023-12-20T03:33:30;100045.33;;;4.78;94.85
54628;BME280;40525;55.926;21.066;2023-12-20T03:35:57;100045.17;;;4.78;95.09
54628;BME280;40525;55.926;21.066;2023-12-20T03:38:24;100042.32;;;4.80;95.46
54628;BME280;40525;55.926;21.066;2023-12-20T03:40:51;100039.83;;;4.81;95.42
54628;BME280;40525;55.926;21.066;2023-12-20T03:43:18;100043.98;;;4.83;95.57
54628;BME280;40525;55.926;21.066;2023-12-20T03:45:45;100047.86;;;4.81;95.61
54628;BME280;40525;55.926;21.066;2023-12-20T03:48:12;100047.72;;;4.80;95.47
54628;BME280;40525;55.926;21.066;2023-12-20T03:50:39;100041.27;;;4.80;95.52
54628;BME280;40525;55.926;21.066;2023-12-20T03:53:06;100042.28;;;4.81;95.45
54628;BME280;40525;55.926;21.066;2023-12-20T03:55:33;100042.83;;;4.80;94.45
54628;BME280;40525;55.926;21.066;2023-12-20T03:58:00;100044.67;;;4.77;94.47
54628;BME280;40525;55.926;21.066;2023-12-20T04:00:27;100042.23;;;4.77;94.68
54628;BME280;40525;55.926;21.066;2023-12-20T04:02:54;100036.09;;;4.79;94.66
54628;BME280;40525;55.926;21.066;2023-12-20T04:05:20;100030.84;;;4.79;94.62
54628;BME280;40525;55.926;21.066;2023-12-20T04:07:48;100025.84;;;4.78;94.65
54628;BME280;40525;55.926;21.066;2023-12-20T04:10:17;100033.56;;;4.76;94.91
54628;BME280;40525;55.926;21.066;2023-12-20T04:12:44;100031.71;;;4.74;95.35
54628;BME280;40525;55.926;21.066;2023-12-20T04:15:11;100031.87;;;4.75;95.53
54628;BME280;40525;55.926;21.066;2023-12-20T04:17:38;100031.11;;;4.76;95.72
54628;BME280;40525;55.926;21.066;2023-12-20T04:20:06;100030.02;;;4.78;95.75
54628;BME280;40525;55.926;21.066;2023-12-20T04:22:33;100030.58;;;4.77;95.84
54628;BME280;40525;55.926;21.066;2023-12-20T04:25:00;100032.55;;;4.75;96.02
54628;BME280;40525;55.926;21.066;2023-12-20T04:27:27;100030.80;;;4.75;95.69
54628;BME280;40525;55.926;21.066;2023-12-20T04:29:54;100036.36;;;4.76;95.57
54628;BME280;40525;55.926;21.066;2023-12-20T04:32:21;100043.80;;;4.77;95.22
54628;BME280;40525;55.926;21.066;2023-12-20T04:34:48;100044.21;;;4.75;94.80
54628;BME280;40525;55.926;21.066;2023-12-20T04:37:15;100045.84;;;4.74;94.63
54628;BME280;40525;55.926;21.066;2023-12-20T04:39:42;100047.95;;;4.73;94.60
54628;BME280;40525;55.926;21.066;2023-12-20T04:42:09;100047.59;;;4.73;94.27
54628;BME280;40525;55.926;21.066;2023-12-20T04:44:36;100048.27;;;4.73;94.33
54628;BME280;40525;55.926;21.066;2023-12-20T04:47:03;100048.82;;;4.73;93.58
54628;BME280;40525;55.926;21.066;2023-12-20T04:49:29;100042.45;;;4.70;92.42
54628;BME280;40525;55.926;21.066;2023-12-20T04:51:56;100041.08;;;4.69;92.40
54628;BME280;40525;55.926;21.066;2023-12-20T04:54:24;100037.62;;;4.69;92.81
54628;BME280;40525;55.926;21.066;2023-12-20T04:56:50;100042.60;;;4.72;93.38
54628;BME280;40525;55.926;21.066;2023-12-20T04:59:17;100044.23;;;4.75;93.47
54628;BME280;40525;55.926;21.066;2023-12-20T05:01:44;100040.86;;;4.77;93.39
54628;BME280;40525;55.926;21.066;2023-12-20T05:04:12;100041.30;;;4.79;93.81
54628;BME280;40525;55.926;21.066;2023-12-20T05:06:39;100041.81;;;4.79;93.77
54628;BME280;40525;55.926;21.066;2023-12-20T05:09:06;100036.23;;;4.79;93.87
54628;BME280;40525;55.926;21.066;2023-12-20T05:11:33;100040.52;;;4.82;93.80
54628;BME280;40525;55.926;21.066;2023-12-20T05:14:00;100027.30;;;4.75;93.89
54628;BME280;40525;55.926;21.066;2023-12-20T05:16:27;100029.52;;;4.77;93.88
54628;BME280;40525;55.926;21.066;2023-12-20T05:18:54;100038.71;;;4.83;93.80
54628;BME280;40525;55.926;21.066;2023-12-20T05:21:21;100040.52;;;4.82;93.98
54628;BME280;40525;55.926;21.066;2023-12-20T05:23:48;100037.77;;;4.80;94.04
54628;BME280;40525;55.926;21.066;2023-12-20T05:26:15;100033.81;;;4.79;94.17
54628;BME280;40525;55.926;21.066;2023-12-20T05:28:42;100031.86;;;4.80;94.52
54628;BME280;40525;55.926;21.066;2023-12-20T05:31:09;100026.95;;;4.81;94.92
54628;BME280;40525;55.926;21.066;2023-12-20T05:33:36;100022.58;;;4.82;95.22
54628;BME280;40525;55.926;21.066;2023-12-20T05:36:03;100021.15;;;4.83;95.57
54628;BME280;40525;55.926;21.066;2023-12-20T05:38:30;100019.44;;;4.82;96.21
54628;BME280;40525;55.926;21.066;2023-12-20T05:40:57;100013.02;;;4.81;96.88
54628;BME280;40525;55.926;21.066;2023-12-20T05:43:24;100009.87;;;4.82;97.45
54628;BME280;40525;55.926;21.066;2023-12-20T05:45:51;100006.98;;;4.84;97.78
54628;BME280;40525;55.926;21.066;2023-12-20T05:48:18;100007.62;;;4.87;98.29
54628;BME280;40525;55.926;21.066;2023-12-20T05:50:45;100003.58;;;4.87;98.47
54628;BME280;40525;55.926;21.066;2023-12-20T05:53:12;100001.83;;;4.88;98.14
54628;BME280;40525;55.926;21.066;2023-12-20T05:55:39;99995.15;;;4.90;97.86
54628;BME280;40525;55.926;21.066;2023-12-20T05:58:06;99986.58;;;4.91;97.18
54628;BME280;40525;55.926;21.066;2023-12-20T06:00:33;99992.93;;;4.93;96.19
54628;BME280;40525;55.926;21.066;2023-12-20T06:03:00;99995.17;;;4.94;95.07
54628;BME280;40525;55.926;21.066;2023-12-20T06:05:27;99987.94;;;4.92;94.82
54628;BME280;40525;55.926;21.066;2023-12-20T06:07:54;99981.63;;;4.88;94.53
54628;BME280;40525;55.926;21.066;2023-12-20T06:10:23;99982.29;;;4.84;94.65
54628;BME280;40525;55.926;21.066;2023-12-20T06:12:50;99974.23;;;4.75;94.38
54628;BME280;40525;55.926;21.066;2023-12-20T06:15:18;99963.31;;;4.68;94.45
54628;BME280;40525;55.926;21.066;2023-12-20T06:17:45;99977.54;;;4.70;94.38
54628;BME280;40525;55.926;21.066;2023-12-20T06:20:14;99983.83;;;4.69;94.12
54628;BME280;40525;55.926;21.066;2023-12-20T06:22:41;99982.98;;;4.68;94.72
54628;BME280;40525;55.926;21.066;2023-12-20T06:25:08;99986.65;;;4.67;96.05
54628;BME280;40525;55.926;21.066;2023-12-20T06:27:35;99989.73;;;4.69;97.29
54628;BME280;40525;55.926;21.066;2023-12-20T06:30:03;99993.81;;;4.72;97.86
54628;BME280;40525;55.926;21.066;2023-12-20T06:32:30;99993.17;;;4.76;97.95
54628;BME280;40525;55.926;21.066;2023-12-20T06:34:57;99996.68;;;4.80;98.19
54628;BME280;40525;55.926;21.066;2023-12-20T06:37:24;100000.07;;;4.83;98.45
54628;BME280;40525;55.926;21.066;2023-12-20T06:39:51;99999.89;;;4.83;98.58
54628;BME280;40525;55.926;21.066;2023-12-20T06:42:18;100002.29;;;4.84;98.61
54628;BME280;40525;55.926;21.066;2023-12-20T06:44:45;99997.54;;;4.86;98.84
54628;BME280;40525;55.926;21.066;2023-12-20T06:47:12;100000.23;;;4.88;99.19
54628;BME280;40525;55.926;21.066;2023-12-20T06:49:40;100007.29;;;4.92;99.76
54628;BME280;40525;55.926;21.066;2023-12-20T06:52:07;99996.81;;;4.92;100.00
54628;BME280;40525;55.926;21.066;2023-12-20T06:54:34;99999.21;;;4.93;100.00
54628;BME280;40525;55.926;21.066;2023-12-20T06:57:01;99997.61;;;4.94;100.00
54628;BME280;40525;55.926;21.066;2023-12-20T06:59:29;100002.77;;;4.96;100.00
54628;BME280;40525;55.926;21.066;2023-12-20T07:01:56;99996.10;;;4.97;100.00
54628;BME280;40525;55.926;21.066;2023-12-20T07:04:23;99990.82;;;4.99;100.00
54628;BME280;40525;55.926;21.066;2023-12-20T07:06:51;99992.73;;;4.99;100.00
54628;BME280;40525;55.926;21.066;2023-12-20T07:09:19;99993.09;;;4.98;100.00
54628;BME280;40525;55.926;21.066;2023-12-20T07:11:46;99995.79;;;4.96;100.00
54628;BME280;40525;55.926;21.066;2023-12-20T07:14:12;100007.16;;;4.95;100.00
54628;BME280;40525;55.926;21.066;2023-12-20T07:16:39;99999.05;;;4.92;100.00
54628;BME280;40525;55.926;21.066;2023-12-20T07:19:07;99996.02;;;4.90;100.00
54628;BME280;40525;55.926;21.066;2023-12-20T07:21:34;99991.91;;;4.88;100.00
54628;BME280;40525;55.926;21.066;2023-12-20T07:24:01;99993.05;;;4.84;100.00
54628;BME280;40525;55.926;21.066;2023-12-20T07:26:28;99994.70;;;4.83;100.00
54628;BME280;40525;55.926;21.066;2023-12-20T07:28:54;99999.92;;;4.82;100.00
54628;BME280;40525;55.926;21.066;2023-12-20T07:31:21;100001.27;;;4.79;100.00
54628;BME280;40525;55.926;21.066;2023-12-20T07:33:50;99997.83;;;4.72;100.00
54628;BME280;40525;55.926;21.066;2023-12-20T07:36:19;99993.52;;;4.65;100.00
54628;BME280;40525;55.926;21.066;2023-12-20T07:38:46;99989.20;;;4.59;100.00
54628;BME280;40525;55.926;21.066;2023-12-20T07:41:13;99988.87;;;4.53;100.00
54628;BME280;40525;55.926;21.066;2023-12-20T07:43:42;99989.22;;;4.48;100.00
54628;BME280;40525;55.926;21.066;2023-12-20T07:46:09;99985.11;;;4.46;100.00
54628;BME280;40525;55.926;21.066;2023-12-20T07:48:36;99980.42;;;4.51;100.00
54628;BME280;40525;55.926;21.066;2023-12-20T07:51:03;99981.95;;;4.58;100.00
54628;BME280;40525;55.926;21.066;2023-12-20T07:53:32;99974.80;;;4.62;100.00
54628;BME280;40525;55.926;21.066;2023-12-20T07:55:59;99965.42;;;4.62;100.00
54628;BME280;40525;55.926;21.066;2023-12-20T07:58:26;99964.34;;;4.63;100.00
54628;BME280;40525;55.926;21.066;2023-12-20T08:01:11;99967.77;;;4.65;100.00
54628;BME280;40525;55.926;21.066;2023-12-20T08:03:38;99955.20;;;4.61;100.00
54628;BME280;40525;55.926;21.066;2023-12-20T08:06:06;99967.23;;;4.71;100.00
54628;BME280;40525;55.926;21.066;2023-12-20T08:08:32;99967.34;;;4.73;100.00
54628;BME280;40525;55.926;21.066;2023-12-20T08:10:59;99969.17;;;4.75;100.00
54628;BME280;40525;55.926;21.066;2023-12-20T08:13:26;99964.88;;;4.78;100.00
54628;BME280;40525;55.926;21.066;2023-12-20T08:15:54;99959.88;;;4.82;100.00
54628;BME280;40525;55.926;21.066;2023-12-20T08:18:22;99956.72;;;4.83;100.00
54628;BME280;40525;55.926;21.066;2023-12-20T08:20:50;99951.27;;;4.84;100.00
54628;BME280;40525;55.926;21.066;2023-12-20T08:23:19;99951.54;;;4.86;100.00
54628;BME280;40525;55.926;21.066;2023-12-20T08:25:50;99946.89;;;4.90;100.00
54628;BME280;40525;55.926;21.066;2023-12-20T08:28:17;99947.99;;;4.94;100.00
54628;BME280;40525;55.926;21.066;2023-12-20T08:30:44;99947.70;;;4.97;100.00
54628;BME280;40525;55.926;21.066;2023-12-20T08:33:11;99949.63;;;5.01;100.00
54628;BME280;40525;55.926;21.066;2023-12-20T08:35:40;99949.67;;;5.04;100.00
54628;BME280;40525;55.926;21.066;2023-12-20T08:38:07;99952.14;;;5.09;100.00
54628;BME280;40525;55.926;21.066;2023-12-20T08:40:34;99950.27;;;5.13;100.00
54628;BME280;40525;55.926;21.066;2023-12-20T08:43:01;99950.98;;;5.18;100.00
54628;BME280;40525;55.926;21.066;2023-12-20T08:45:28;99952.45;;;5.21;100.00
54628;BME280;40525;55.926;21.066;2023-12-20T08:47:55;99956.94;;;5.22;100.00
54628;BME280;40525;55.926;21.066;2023-12-20T08:50:26;99955.98;;;5.23;100.00
54628;BME280;40525;55.926;21.066;2023-12-20T08:52:53;99949.30;;;5.25;100.00
54628;BME280;40525;55.926;21.066;2023-12-20T08:55:20;99950.23;;;5.28;100.00
54628;BME280;40525;55.926;21.066;2023-12-20T08:57:47;99958.45;;;5.28;100.00
54628;BME280;40525;55.926;21.066;2023-12-20T09:00:15;99956.11;;;5.25;100.00
54628;BME280;40525;55.926;21.066;2023-12-20T09:02:43;99955.23;;;5.21;100.00
54628;BME280;40525;55.926;21.066;2023-12-20T09:05:10;99949.02;;;5.19;100.00
54628;BME280;40525;55.926;21.066;2023-12-20T09:07:37;99945.82;;;5.21;100.00
54628;BME280;40525;55.926;21.066;2023-12-20T09:10:04;99938.21;;;5.23;100.00
54628;BME280;40525;55.926;21.066;2023-12-20T09:12:31;99938.81;;;5.26;100.00
54628;BME280;40525;55.926;21.066;2023-12-20T09:14:58;99934.28;;;5.26;100.00
54628;BME280;40525;55.926;21.066;2023-12-20T09:17:25;99931.25;;;5.28;100.00
54628;BME280;40525;55.926;21.066;2023-12-20T09:19:53;99923.33;;;5.30;100.00
54628;BME280;40525;55.926;21.066;2023-12-20T09:22:21;99921.34;;;5.32;100.00
54628;BME280;40525;55.926;21.066;2023-12-20T09:24:48;99920.44;;;5.33;100.00
54628;BME280;40525;55.926;21.066;2023-12-20T09:27:15;99916.73;;;5.34;100.00
54628;BME280;40525;55.926;21.066;2023-12-20T09:29:42;99914.16;;;5.38;100.00
54628;BME280;40525;55.926;21.066;2023-12-20T09:32:09;99915.16;;;5.39;100.00
54628;BME280;40525;55.926;21.066;2023-12-20T09:34:36;99912.21;;;5.39;100.00
54628;BME280;40525;55.926;21.066;2023-12-20T09:37:04;99909.48;;;5.37;100.00
54628;BME280;40525;55.926;21.066;2023-12-20T09:39:32;99907.08;;;5.36;100.00
54628;BME280;40525;55.926;21.066;2023-12-20T09:44:26;99897.59;;;5.38;100.00
54628;BME280;40525;55.926;21.066;2023-12-20T09:46:53;99894.14;;;5.42;100.00
54628;BME280;40525;55.926;21.066;2023-12-20T09:49:21;99892.52;;;5.43;100.00
54628;BME280;40525;55.926;21.066;2023-12-20T09:51:51;99885.61;;;5.42;100.00
54628;BME280;40525;55.926;21.066;2023-12-20T09:54:19;99886.09;;;5.43;100.00
54628;BME280;40525;55.926;21.066;2023-12-20T09:56:49;99883.59;;;5.44;100.00
54628;BME280;40525;55.926;21.066;2023-12-20T09:59:16;99876.80;;;5.44;100.00
54628;BME280;40525;55.926;21.066;2023-12-20T10:01:43;99867.86;;;5.46;100.00
54628;BME280;40525;55.926;21.066;2023-12-20T10:04:12;99869.52;;;5.47;100.00
54628;BME280;40525;55.926;21.066;2023-12-20T10:06:54;99867.05;;;5.48;100.00
54628;BME280;40525;55.926;21.066;2023-12-20T10:09:23;99866.10;;;5.51;100.00
54628;BME280;40525;55.926;21.066;2023-12-20T10:11:53;99868.51;;;5.47;100.00
54628;BME280;40525;55.926;21.066;2023-12-20T10:14:21;99867.58;;;5.39;100.00
54628;BME280;40525;55.926;21.066;2023-12-20T10:16:49;99862.88;;;5.34;100.00
54628;BME280;40525;55.926;21.066;2023-12-20T10:19:17;99861.16;;;5.29;100.00
54628;BME280;40525;55.926;21.066;2023-12-20T10:21:45;99854.73;;;5.24;100.00
54628;BME280;40525;55.926;21.066;2023-12-20T10:24:18;99848.31;;;5.19;100.00
54628;BME280;40525;55.926;21.066;2023-12-20T10:26:45;99844.69;;;5.18;100.00
54628;BME280;40525;55.926;21.066;2023-12-20T10:29:12;99839.82;;;5.17;100.00
54628;BME280;40525;55.926;21.066;2023-12-20T10:31:39;99835.95;;;5.18;100.00
54628;BME280;40525;55.926;21.066;2023-12-20T10:34:07;99831.94;;;5.19;100.00
54628;BME280;40525;55.926;21.066;2023-12-20T10:36:34;99824.27;;;5.19;100.00
54628;BME280;40525;55.926;21.066;2023-12-20T10:39:03;99816.80;;;5.18;100.00
54628;BME280;40525;55.926;21.066;2023-12-20T10:41:32;99807.95;;;5.22;100.00
54628;BME280;40525;55.926;21.066;2023-12-20T10:44:01;99800.64;;;5.26;100.00
54628;BME280;40525;55.926;21.066;2023-12-20T10:46:29;99797.20;;;5.30;100.00
54628;BME280;40525;55.926;21.066;2023-12-20T10:48:57;99801.37;;;5.30;100.00
54628;BME280;40525;55.926;21.066;2023-12-20T10:51:24;99792.73;;;5.28;100.00
54628;BME280;40525;55.926;21.066;2023-12-20T10:53:56;99795.84;;;5.24;100.00
54628;BME280;40525;55.926;21.066;2023-12-20T10:56:23;99793.27;;;5.23;100.00
54628;BME280;40525;55.926;21.066;2023-12-20T10:58:50;99796.25;;;5.22;100.00
54628;BME280;40525;55.926;21.066;2023-12-20T11:01:18;99788.10;;;5.21;100.00
54628;BME280;40525;55.926;21.066;2023-12-20T11:03:49;99783.64;;;5.20;100.00
54628;BME280;40525;55.926;21.066;2023-12-20T11:08:47;99773.05;;;5.19;100.00
54628;BME280;40525;55.926;21.066;2023-12-20T11:11:29;99768.82;;;5.20;100.00
54628;BME280;40525;55.926;21.066;2023-12-20T11:16:26;99755.19;;;5.21;100.00
54628;BME280;40525;55.926;21.066;2023-12-20T11:19:06;99747.21;;;5.20;100.00
54628;BME280;40525;55.926;21.066;2023-12-20T11:21:34;99743.17;;;5.16;100.00
54628;BME280;40525;55.926;21.066;2023-12-20T11:24:01;99727.17;;;5.16;100.00
54628;BME280;40525;55.926;21.066;2023-12-20T11:26:28;99723.70;;;5.16;100.00
54628;BME280;40525;55.926;21.066;2023-12-20T11:31:41;99720.45;;;5.18;100.00
54628;BME280;40525;55.926;21.066;2023-12-20T11:34:14;99719.39;;;5.18;100.00
54628;BME280;40525;55.926;21.066;2023-12-20T11:36:44;99721.67;;;5.18;100.00
54628;BME280;40525;55.926;21.066;2023-12-20T11:39:11;99716.77;;;5.19;100.00
54628;BME280;40525;55.926;21.066;2023-12-20T11:41:39;99714.95;;;5.16;100.00
54628;BME280;40525;55.926;21.066;2023-12-20T11:44:06;99707.59;;;5.13;100.00
54628;BME280;40525;55.926;21.066;2023-12-20T11:46:33;99703.88;;;5.09;100.00
54628;BME280;40525;55.926;21.066;2023-12-20T11:49:00;99702.62;;;5.06;100.00
54628;BME280;40525;55.926;21.066;2023-12-20T11:51:28;99699.36;;;5.05;100.00
54628;BME280;40525;55.926;21.066;2023-12-20T11:53:54;99697.56;;;5.02;100.00
54628;BME280;40525;55.926;21.066;2023-12-20T11:56:21;99694.30;;;5.01;100.00
54628;BME280;40525;55.926;21.066;2023-12-20T11:58:48;99686.38;;;4.98;100.00
54628;BME280;40525;55.926;21.066;2023-12-20T12:01:17;99677.52;;;4.94;100.00
54628;BME280;40525;55.926;21.066;2023-12-20T12:03:44;99675.88;;;4.91;100.00
54628;BME280;40525;55.926;21.066;2023-12-20T12:06:11;99669.44;;;4.86;100.00
54628;BME280;40525;55.926;21.066;2023-12-20T12:08:38;99659.36;;;4.85;100.00
54628;BME280;40525;55.926;21.066;2023-12-20T12:11:05;99657.52;;;4.84;100.00
54628;BME280;40525;55.926;21.066;2023-12-20T12:13:32;99651.66;;;4.83;100.00
54628;BME280;40525;55.926;21.066;2023-12-20T12:15:59;99638.34;;;4.80;100.00
54628;BME280;40525;55.926;21.066;2023-12-20T12:18:26;99643.37;;;4.81;100.00
54628;BME280;40525;55.926;21.066;2023-12-20T12:20:59;99636.48;;;4.83;100.00
54628;BME280;40525;55.926;21.066;2023-12-20T12:23:26;99633.11;;;4.85;100.00
54628;BME280;40525;55.926;21.066;2023-12-20T12:25:53;99629.38;;;4.87;100.00
54628;BME280;40525;55.926;21.066;2023-12-20T12:28:25;99627.19;;;4.89;100.00
54628;BME280;40525;55.926;21.066;2023-12-20T12:30:56;99627.74;;;4.93;100.00
54628;BME280;40525;55.926;21.066;2023-12-20T12:33:24;99621.66;;;4.97;100.00
54628;BME280;40525;55.926;21.066;2023-12-20T12:35:51;99626.29;;;4.99;100.00
54628;BME280;40525;55.926;21.066;2023-12-20T12:38:21;99624.50;;;5.00;100.00
54628;BME280;40525;55.926;21.066;2023-12-20T12:40:48;99620.42;;;5.01;100.00
54628;BME280;40525;55.926;21.066;2023-12-20T12:43:16;99620.10;;;5.05;100.00
54628;BME280;40525;55.926;21.066;2023-12-20T12:45:43;99617.20;;;5.08;100.00
54628;BME280;40525;55.926;21.066;2023-12-20T12:48:10;99610.83;;;5.11;100.00
54628;BME280;40525;55.926;21.066;2023-12-20T12:50:37;99610.97;;;5.12;100.00
54628;BME280;40525;55.926;21.066;2023-12-20T12:53:04;99611.55;;;5.09;100.00
54628;BME280;40525;55.926;21.066;2023-12-20T12:55:31;99603.27;;;5.08;100.00
54628;BME280;40525;55.926;21.066;2023-12-20T12:57:58;99600.70;;;5.06;100.00
54628;BME280;40525;55.926;21.066;2023-12-20T13:00:26;99597.58;;;5.06;100.00
54628;BME280;40525;55.926;21.066;2023-12-20T13:02:53;99599.46;;;5.07;100.00